createdAt,value
2019-02-26T00:03:56.849Z,39.07
2019-02-26T00:09:01.155Z,40.00
2019-02-26T00:14:02.044Z,37.07
2019-02-26T00:19:05.163Z,36.27
2019-02-26T00:24:09.859Z,38.63
2019-02-26T00:29:10.932Z,37.70
2019-02-26T00:34:14.059Z,35.43
2019-02-26T00:39:16.234Z,36.27
2019-02-26T00:44:20.936Z,33.00
2019-02-26T00:49:23.193Z,34.90
2019-02-26T00:54:26.651Z,35.23
2019-02-26T00:59:28.564Z,31.23
2019-02-26T01:04:33.580Z,29.03
2019-02-26T01:09:35.295Z,27.53
2019-02-26T01:14:41.302Z,27.53
2019-02-26T01:19:43.458Z,29.30
2019-02-26T01:24:45.268Z,27.30
2019-02-26T01:29:47.244Z,25.50
2019-02-26T01:34:50.536Z,23.77
2019-02-26T01:39:53.880Z,23.20
2019-02-26T01:44:55.710Z,22.53
2019-02-26T01:49:59.327Z,22.27
2019-02-26T01:55:02.805Z,21.27
2019-02-26T02:00:07.722Z,22.33
2019-02-26T02:05:09.476Z,21.03
2019-02-26T02:10:11.681Z,19.47
2019-02-26T02:15:15.794Z,13.40
2019-02-26T02:20:20.829Z,17.87
2019-02-26T02:25:20.485Z,18.63
2019-02-26T02:30:27.020Z,15.97
2019-02-26T02:35:25.765Z,17.73
2019-02-26T02:40:27.444Z,18.40
2019-02-26T02:45:29.227Z,20.00
2019-02-26T02:50:31.012Z,17.73
2019-02-26T02:55:32.767Z,18.10
2019-02-26T03:00:34.609Z,18.60
2019-02-26T03:05:38.058Z,18.13
2019-02-26T03:10:42.329Z,18.30
2019-02-26T03:15:43.381Z,17.93
2019-02-26T03:20:45.134Z,20.13
2019-02-26T03:25:47.867Z,18.03
2019-02-26T03:30:50.424Z,15.90
2019-02-26T03:35:52.210Z,15.77
2019-02-26T03:40:55.533Z,15.23
2019-02-26T03:45:57.505Z,19.00
2019-02-26T03:51:01.302Z,16.80
2019-02-26T03:56:04.589Z,17.73
2019-02-26T04:01:08.448Z,16.73
2019-02-26T04:06:12.046Z,18.20
2019-02-26T04:11:13.913Z,10.83
2019-02-26T04:16:16.870Z,12.83
2019-02-26T04:21:20.947Z,15.20
2019-02-26T04:26:40.778Z,17.53
2019-02-26T04:32:12.125Z,15.50
2019-02-26T04:37:35.096Z,14.03
2019-02-26T04:42:54.292Z,15.37
2019-02-26T04:47:58.308Z,11.23
2019-02-26T04:53:02.137Z,14.73
2019-02-26T04:58:03.147Z,12.60
2019-02-26T05:03:05.837Z,11.83
2019-02-26T05:08:10.484Z,13.47
2019-02-26T05:13:11.848Z,13.33
2019-02-26T05:18:13.641Z,13.10
2019-02-26T05:23:15.403Z,12.63
2019-02-26T05:28:17.682Z,13.03
2019-02-26T05:33:21.583Z,13.07
2019-02-26T05:38:24.094Z,13.50
2019-02-26T05:43:28.219Z,12.43
2019-02-26T05:48:30.150Z,13.17
2019-02-26T05:53:31.900Z,11.90
2019-02-26T05:58:35.529Z,13.10
2019-02-26T06:03:38.538Z,13.10
2019-02-26T06:08:41.286Z,12.13
2019-02-26T06:13:43.309Z,10.67
2019-02-26T06:18:46.392Z,13.13
2019-02-26T06:23:50.873Z,11.30
2019-02-26T06:28:53.060Z,9.33
2019-02-26T06:33:54.813Z,9.70
2019-02-26T06:38:58.770Z,9.80
2019-02-26T06:44:00.106Z,12.40
2019-02-26T06:49:01.897Z,10.23
2019-02-26T06:54:03.660Z,10.17
2019-02-26T06:59:09.913Z,8.83
2019-02-26T07:04:12.938Z,10.60
2019-02-26T07:09:16.388Z,10.60
2019-02-26T07:14:18.258Z,10.57
2019-02-26T07:19:20.020Z,7.57
2019-02-26T07:24:23.050Z,10.00
2019-02-26T07:29:25.341Z,7.30
2019-02-26T07:34:27.435Z,8.80
2019-02-26T07:39:29.289Z,9.63
2019-02-26T07:44:38.505Z,8.27
2019-02-26T07:49:40.246Z,8.53
2019-02-26T07:54:42.796Z,9.83
2019-02-26T07:59:47.518Z,5.20
2019-02-26T08:04:49.014Z,9.63
2019-02-26T08:09:51.614Z,6.87
2019-02-26T08:15:02.327Z,11.83
2019-02-26T08:20:06.851Z,11.23
2019-02-26T08:25:07.304Z,10.83
2019-02-26T08:30:12.127Z,10.03
2019-02-26T08:35:17.867Z,9.97
2019-02-26T08:40:17.309Z,7.73
2019-02-26T08:45:21.018Z,11.13
2019-02-26T08:50:22.485Z,9.07
2019-02-26T08:55:24.670Z,7.93
2019-02-26T09:00:26.369Z,8.37
2019-02-26T09:05:29.796Z,6.60
2019-02-26T09:10:31.525Z,7.00
2019-02-26T09:15:33.658Z,8.47
2019-02-26T09:20:36.681Z,6.97
2019-02-26T09:25:38.362Z,6.23
2019-02-26T09:30:40.833Z,8.40
2019-02-26T09:35:42.565Z,7.00
2019-02-26T09:40:45.284Z,7.33
2019-02-26T09:45:48.323Z,6.23
2019-02-26T09:50:51.225Z,5.93
2019-02-26T09:55:52.917Z,7.37
2019-02-26T10:00:54.613Z,5.13
2019-02-26T10:05:57.916Z,6.10
2019-02-26T10:11:02.159Z,5.83
2019-02-26T10:16:04.516Z,5.17
2019-02-26T10:21:09.151Z,4.93
2019-02-26T10:26:10.717Z,5.00
2019-02-26T10:31:12.541Z,4.43
2019-02-26T10:36:16.541Z,5.97
2019-02-26T10:41:17.797Z,5.23
2019-02-26T10:46:19.554Z,4.37
2019-02-26T10:51:25.996Z,5.07
2019-02-26T10:56:28.007Z,5.63
2019-02-26T11:01:30.697Z,4.00
2019-02-26T11:06:33.712Z,3.27
2019-02-26T11:11:37.098Z,4.30
2019-02-26T11:16:39.160Z,4.00
2019-02-26T11:21:40.873Z,4.33
2019-02-26T11:26:43.942Z,4.77
2019-02-26T11:31:47.694Z,3.43
2019-02-26T11:36:49.255Z,3.53
2019-02-26T11:41:53.735Z,3.70
2019-02-26T11:46:56.412Z,3.67
2019-02-26T11:51:57.922Z,3.80
2019-02-26T11:56:59.609Z,3.73
2019-02-26T12:02:02.111Z,3.17
2019-02-26T12:07:07.438Z,3.73
2019-02-26T12:12:09.228Z,4.80
2019-02-26T12:17:11.949Z,3.27
2019-02-26T12:22:13.721Z,2.93
2019-02-26T12:27:18.155Z,5.73
2019-02-26T12:32:19.963Z,4.87
2019-02-26T12:37:22.546Z,3.60
2019-02-26T12:42:24.281Z,3.93
2019-02-26T12:47:27.744Z,2.67
2019-02-26T12:52:30.355Z,3.33
2019-02-26T12:57:32.382Z,2.80
2019-02-26T13:02:36.271Z,2.30
2019-02-26T13:07:37.649Z,2.07
2019-02-26T13:12:39.367Z,1.70
2019-02-26T13:17:41.063Z,1.90
2019-02-26T13:22:45.766Z,2.13
2019-02-26T13:27:48.180Z,1.90
2019-02-26T13:32:56.209Z,1.83
2019-02-26T13:37:53.485Z,2.23
2019-02-26T13:48:01.271Z,2.47
2019-02-26T13:53:02.265Z,1.93
2019-02-26T13:58:11.476Z,2.07
2019-02-26T14:03:07.563Z,2.07
2019-02-26T14:08:09.581Z,2.00
2019-02-26T14:13:11.504Z,2.10
2019-02-26T14:18:13.313Z,1.97
2019-02-26T14:23:15.064Z,1.67
2019-02-26T14:28:17.049Z,2.33
2019-02-26T14:33:18.826Z,2.13
2019-02-26T14:38:20.660Z,2.33
2019-02-26T14:43:22.492Z,2.37
2019-02-26T14:48:24.273Z,2.60
2019-02-26T14:53:27.604Z,1.67
2019-02-26T14:58:29.442Z,2.37
2019-02-26T15:03:31.237Z,2.10
2019-02-26T15:08:32.936Z,2.00
2019-02-26T15:13:34.669Z,2.27
2019-02-26T15:18:36.457Z,2.50
2019-02-26T15:23:38.230Z,2.00
2019-02-26T15:28:40.013Z,2.53
2019-02-26T15:33:41.811Z,1.90
2019-02-26T15:38:43.569Z,2.50
2019-02-26T15:43:45.349Z,2.07
2019-02-26T15:48:47.136Z,2.73
2019-02-26T15:53:48.889Z,2.93
2019-02-26T15:58:50.673Z,2.20
2019-02-26T16:03:52.756Z,2.60
2019-02-26T16:08:54.537Z,2.10
2019-02-26T16:13:56.313Z,2.73
2019-02-26T16:19:00.583Z,1.80
2019-02-26T16:24:01.722Z,2.27
2019-02-26T16:29:03.485Z,2.90
2019-02-26T16:34:05.257Z,2.27
2019-02-26T16:39:07.055Z,2.60
2019-02-26T16:44:08.773Z,3.10
2019-02-26T16:49:10.492Z,2.93
2019-02-26T16:54:12.190Z,3.33
2019-02-26T16:59:13.966Z,2.53
2019-02-26T17:04:15.709Z,3.10
2019-02-26T17:09:19.051Z,3.63
2019-02-26T17:14:21.800Z,3.17
2019-02-26T17:19:23.893Z,2.70
2019-02-26T17:24:25.942Z,3.60
2019-02-26T17:29:27.613Z,2.97
2019-02-26T17:34:32.112Z,3.40
2019-02-26T17:39:33.873Z,3.67
2019-02-26T17:44:35.653Z,4.73
2019-02-26T17:49:37.434Z,3.53
2019-02-26T17:54:39.119Z,3.87
2019-02-26T17:59:40.889Z,3.37
2019-02-26T18:04:42.675Z,3.97
2019-02-26T18:09:44.450Z,4.70
2019-02-26T18:14:46.213Z,4.67
2019-02-26T18:19:49.588Z,4.93
2019-02-26T18:24:51.505Z,3.30
2019-02-26T18:29:53.301Z,4.33
2019-02-26T18:34:55.073Z,3.95
2019-02-26T18:39:56.861Z,4.40
2019-02-26T18:44:58.630Z,3.80
2019-02-26T18:50:00.407Z,4.27
2019-02-26T18:55:02.175Z,3.23
2019-02-26T19:00:05.718Z,2.17
2019-02-26T19:05:10.162Z,3.80
2019-02-26T19:10:12.250Z,4.07
2019-02-26T19:15:14.817Z,6.57
2019-02-26T19:20:17.942Z,5.20
2019-02-26T19:25:19.697Z,5.43
2019-02-26T19:30:21.527Z,5.90
2019-02-26T19:35:23.253Z,5.70
2019-02-26T19:40:26.676Z,5.53
2019-02-26T19:45:28.446Z,6.30
2019-02-26T19:50:30.218Z,6.70
2019-02-26T19:55:32.621Z,5.60
2019-02-26T20:00:34.398Z,4.53
2019-02-26T20:05:36.226Z,4.17
2019-02-26T20:10:38.300Z,6.43
2019-02-26T20:15:40.123Z,5.90
2019-02-26T20:20:45.739Z,6.20
2019-02-26T20:25:46.816Z,5.73
2019-02-26T20:30:48.840Z,4.30
2019-02-26T20:35:50.631Z,5.63
2019-02-26T20:40:52.386Z,7.80
2019-02-26T20:45:54.175Z,6.80
2019-02-26T20:50:56.527Z,5.87
2019-02-26T20:55:58.502Z,3.47
2019-02-26T21:01:00.226Z,4.87
2019-02-26T21:06:01.984Z,4.17
2019-02-26T21:11:03.840Z,5.50
2019-02-26T21:16:05.661Z,4.57
2019-02-26T21:21:08.997Z,4.10
2019-02-26T21:26:10.746Z,3.90
2019-02-26T21:31:12.506Z,5.60
2019-02-26T21:36:14.290Z,4.70
2019-02-26T21:41:16.058Z,4.87
2019-02-26T21:46:17.793Z,4.07
2019-02-26T21:51:19.506Z,4.33
2019-02-26T21:56:21.569Z,6.47
2019-02-26T22:01:23.272Z,5.47
2019-02-26T22:06:25.029Z,3.93
2019-02-26T22:11:26.813Z,4.63
2019-02-26T22:16:28.590Z,4.57
2019-02-26T22:21:31.381Z,4.17
2019-02-26T22:26:33.182Z,4.63
2019-02-26T22:31:34.950Z,4.17
2019-02-26T22:36:36.721Z,4.73
2019-02-26T22:41:38.510Z,4.27
2019-02-26T22:46:40.294Z,4.63
2019-02-26T22:51:42.054Z,3.37
2019-02-26T22:56:43.825Z,3.43
2019-02-26T23:01:46.714Z,3.90
2019-02-26T23:06:48.418Z,4.83
2019-02-26T23:11:50.196Z,4.43
2019-02-26T23:16:52.588Z,4.30
2019-02-26T23:21:54.454Z,4.57
2019-02-26T23:26:56.241Z,4.43
2019-02-26T23:31:58.006Z,6.67
2019-02-26T23:37:00.961Z,5.37
2019-02-26T23:42:05.876Z,4.40
2019-02-26T23:47:06.712Z,4.87
2019-02-26T23:52:08.492Z,4.90
2019-02-26T23:57:10.171Z,5.00
